sensor_id;sensor_type;location;lat;lon;timestamp;P1;durP1;ratioP1;P2;durP2;ratioP2
55053;SDS011;40954;45.668;18.980;2022-12-29T00:01:16;69.15;;;38.97;;
55053;SDS011;40954;45.668;18.980;2022-12-29T00:03:45;70.00;;;39.75;;
55053;SDS011;40954;45.668;18.980;2022-12-29T00:06:11;62.40;;;37.90;;
55053;SDS011;40954;45.668;18.980;2022-12-29T00:08:37;57.67;;;34.55;;
55053;SDS011;40954;45.668;18.980;2022-12-29T00:11:10;62.58;;;36.83;;
55053;SDS011;40954;45.668;18.980;2022-12-29T00:13:37;72.55;;;39.50;;
55053;SDS011;40954;45.668;18.980;2022-12-29T00:16:22;71.30;;;39.78;;
55053;SDS011;40954;45.668;18.980;2022-12-29T00:18:48;69.18;;;36.88;;
55053;SDS011;40954;45.668;18.980;2022-12-29T00:21:15;60.22;;;35.92;;
55053;SDS011;40954;45.668;18.980;2022-12-29T00:24:00;59.42;;;36.40;;
55053;SDS011;40954;45.668;18.980;2022-12-29T00:26:45;67.03;;;40.45;;
55053;SDS011;40954;45.668;18.980;2022-12-29T00:29:31;60.40;;;36.92;;
55053;SDS011;40954;45.668;18.980;2022-12-29T00:32:16;76.63;;;42.85;;
55053;SDS011;40954;45.668;18.980;2022-12-29T00:35:00;72.00;;;45.33;;
55053;SDS011;40954;45.668;18.980;2022-12-29T00:37:39;68.55;;;42.42;;
55053;SDS011;40954;45.668;18.980;2022-12-29T00:40:25;71.63;;;42.45;;
55053;SDS011;40954;45.668;18.980;2022-12-29T00:43:09;75.03;;;45.55;;
55053;SDS011;40954;45.668;18.980;2022-12-29T00:45:54;77.88;;;46.85;;
55053;SDS011;40954;45.668;18.980;2022-12-29T00:48:20;97.35;;;54.45;;
55053;SDS011;40954;45.668;18.980;2022-12-29T00:51:04;106.07;;;58.80;;
55053;SDS011;40954;45.668;18.980;2022-12-29T00:53:30;105.40;;;56.42;;
55053;SDS011;40954;45.668;18.980;2022-12-29T00:55:56;108.28;;;57.88;;
55053;SDS011;40954;45.668;18.980;2022-12-29T00:58:22;91.20;;;51.63;;
55053;SDS011;40954;45.668;18.980;2022-12-29T01:00:48;91.00;;;48.67;;
55053;SDS011;40954;45.668;18.980;2022-12-29T01:03:14;80.53;;;46.47;;
55053;SDS011;40954;45.668;18.980;2022-12-29T01:05:40;71.32;;;45.25;;
55053;SDS011;40954;45.668;18.980;2022-12-29T01:08:06;74.38;;;42.22;;
55053;SDS011;40954;45.668;18.980;2022-12-29T01:10:32;64.72;;;37.67;;
55053;SDS011;40954;45.668;18.980;2022-12-29T01:12:58;67.88;;;37.97;;
55053;SDS011;40954;45.668;18.980;2022-12-29T01:15:24;71.43;;;39.60;;
55053;SDS011;40954;45.668;18.980;2022-12-29T01:17:50;73.63;;;41.95;;
55053;SDS011;40954;45.668;18.980;2022-12-29T01:20:16;65.03;;;38.17;;
55053;SDS011;40954;45.668;18.980;2022-12-29T01:22:42;57.22;;;36.70;;
55053;SDS011;40954;45.668;18.980;2022-12-29T01:25:08;58.92;;;35.75;;
55053;SDS011;40954;45.668;18.980;2022-12-29T01:27:34;57.45;;;33.13;;
55053;SDS011;40954;45.668;18.980;2022-12-29T01:30:00;48.30;;;32.17;;
55053;SDS011;40954;45.668;18.980;2022-12-29T01:32:26;51.28;;;29.70;;
55053;SDS011;40954;45.668;18.980;2022-12-29T01:34:52;54.95;;;32.50;;
55053;SDS011;40954;45.668;18.980;2022-12-29T01:37:18;53.50;;;32.88;;
55053;SDS011;40954;45.668;18.980;2022-12-29T01:39:44;48.63;;;30.55;;
55053;SDS011;40954;45.668;18.980;2022-12-29T01:42:17;57.20;;;33.75;;
55053;SDS011;40954;45.668;18.980;2022-12-29T01:47:10;55.80;;;32.50;;
55053;SDS011;40954;45.668;18.980;2022-12-29T01:49:36;53.67;;;33.80;;
55053;SDS011;40954;45.668;18.980;2022-12-29T01:52:05;55.03;;;34.88;;
55053;SDS011;40954;45.668;18.980;2022-12-29T01:57:01;48.70;;;31.35;;
55053;SDS011;40954;45.668;18.980;2022-12-29T01:59:29;54.13;;;33.75;;
55053;SDS011;40954;45.668;18.980;2022-12-29T02:01:57;49.13;;;32.25;;
55053;SDS011;40954;45.668;18.980;2022-12-29T02:04:23;52.60;;;32.88;;
55053;SDS011;40954;45.668;18.980;2022-12-29T02:06:55;54.20;;;31.75;;
55053;SDS011;40954;45.668;18.980;2022-12-29T02:11:49;51.25;;;30.88;;
55053;SDS011;40954;45.668;18.980;2022-12-29T02:14:15;48.72;;;30.48;;
55053;SDS011;40954;45.668;18.980;2022-12-29T02:37:14;52.78;;;31.92;;
55053;SDS011;40954;45.668;18.980;2022-12-29T02:39:56;49.00;;;32.42;;
55053;SDS011;40954;45.668;18.980;2022-12-29T02:45:04;47.28;;;31.23;;
55053;SDS011;40954;45.668;18.980;2022-12-29T02:50:03;52.92;;;31.58;;
55053;SDS011;40954;45.668;18.980;2022-12-29T02:52:36;48.50;;;32.03;;
55053;SDS011;40954;45.668;18.980;2022-12-29T02:55:03;50.92;;;32.15;;
55053;SDS011;40954;45.668;18.980;2022-12-29T02:57:31;56.15;;;32.03;;
55053;SDS011;40954;45.668;18.980;2022-12-29T03:00:07;56.40;;;33.35;;
55053;SDS011;40954;45.668;18.980;2022-12-29T03:12:49;57.97;;;35.17;;
55053;SDS011;40954;45.668;18.980;2022-12-29T03:15:40;54.70;;;34.50;;
55053;SDS011;40954;45.668;18.980;2022-12-29T03:19:03;48.30;;;32.55;;
55053;SDS011;40954;45.668;18.980;2022-12-29T03:24:33;51.30;;;32.88;;
55053;SDS011;40954;45.668;18.980;2022-12-29T03:27:01;58.72;;;33.17;;
55053;SDS011;40954;45.668;18.980;2022-12-29T03:29:29;54.40;;;32.88;;
55053;SDS011;40954;45.668;18.980;2022-12-29T03:31:57;47.60;;;31.15;;
55053;SDS011;40954;45.668;18.980;2022-12-29T03:34:24;52.80;;;33.60;;
55053;SDS011;40954;45.668;18.980;2022-12-29T03:36:52;51.15;;;32.53;;
55053;SDS011;40954;45.668;18.980;2022-12-29T03:39:19;55.13;;;34.10;;
55053;SDS011;40954;45.668;18.980;2022-12-29T03:41:46;48.70;;;32.30;;
55053;SDS011;40954;45.668;18.980;2022-12-29T03:44:15;56.00;;;35.05;;
55053;SDS011;40954;45.668;18.980;2022-12-29T03:46:40;58.67;;;36.55;;
55053;SDS011;40954;45.668;18.980;2022-12-29T03:49:06;62.97;;;35.65;;
55053;SDS011;40954;45.668;18.980;2022-12-29T03:51:31;65.13;;;37.33;;
55053;SDS011;40954;45.668;18.980;2022-12-29T03:53:57;63.85;;;39.13;;
55053;SDS011;40954;45.668;18.980;2022-12-29T03:56:23;67.70;;;41.17;;
55053;SDS011;40954;45.668;18.980;2022-12-29T03:58:48;74.75;;;43.25;;
55053;SDS011;40954;45.668;18.980;2022-12-29T04:01:14;76.28;;;46.38;;
55053;SDS011;40954;45.668;18.980;2022-12-29T04:03:39;78.10;;;44.15;;
55053;SDS011;40954;45.668;18.980;2022-12-29T04:06:05;70.93;;;42.08;;
55053;SDS011;40954;45.668;18.980;2022-12-29T04:08:32;74.18;;;41.42;;
55053;SDS011;40954;45.668;18.980;2022-12-29T04:10:58;76.18;;;43.50;;
55053;SDS011;40954;45.668;18.980;2022-12-29T04:13:23;74.32;;;43.15;;
55053;SDS011;40954;45.668;18.980;2022-12-29T04:15:49;67.38;;;39.20;;
55053;SDS011;40954;45.668;18.980;2022-12-29T04:18:15;69.32;;;40.88;;
55053;SDS011;40954;45.668;18.980;2022-12-29T04:20:41;65.88;;;40.92;;
55053;SDS011;40954;45.668;18.980;2022-12-29T04:23:25;67.70;;;41.60;;
55053;SDS011;40954;45.668;18.980;2022-12-29T04:25:51;64.60;;;37.60;;
55053;SDS011;40954;45.668;18.980;2022-12-29T04:28:17;54.70;;;35.67;;
55053;SDS011;40954;45.668;18.980;2022-12-29T04:30:43;56.30;;;36.13;;
55053;SDS011;40954;45.668;18.980;2022-12-29T04:33:09;58.90;;;38.45;;
55053;SDS011;40954;45.668;18.980;2022-12-29T04:35:35;66.78;;;39.53;;
55053;SDS011;40954;45.668;18.980;2022-12-29T04:38:01;67.72;;;39.78;;
55053;SDS011;40954;45.668;18.980;2022-12-29T04:40:26;68.25;;;39.83;;
55053;SDS011;40954;45.668;18.980;2022-12-29T04:42:52;69.38;;;42.58;;
55053;SDS011;40954;45.668;18.980;2022-12-29T04:45:18;72.00;;;42.05;;
55053;SDS011;40954;45.668;18.980;2022-12-29T04:47:43;54.83;;;36.10;;
55053;SDS011;40954;45.668;18.980;2022-12-29T04:50:09;53.40;;;35.42;;
55053;SDS011;40954;45.668;18.980;2022-12-29T04:52:35;52.53;;;35.10;;
55053;SDS011;40954;45.668;18.980;2022-12-29T04:55:01;91.95;;;54.95;;
55053;SDS011;40954;45.668;18.980;2022-12-29T04:57:30;72.05;;;45.00;;
55053;SDS011;40954;45.668;18.980;2022-12-29T04:59:56;61.95;;;39.50;;
55053;SDS011;40954;45.668;18.980;2022-12-29T05:02:22;55.35;;;33.95;;
55053;SDS011;40954;45.668;18.980;2022-12-29T05:04:48;52.33;;;33.65;;
55053;SDS011;40954;45.668;18.980;2022-12-29T05:07:14;52.55;;;32.90;;
55053;SDS011;40954;45.668;18.980;2022-12-29T05:09:39;57.58;;;34.13;;
55053;SDS011;40954;45.668;18.980;2022-12-29T05:12:05;54.25;;;36.00;;
55053;SDS011;40954;45.668;18.980;2022-12-29T05:14:31;53.03;;;33.90;;
55053;SDS011;40954;45.668;18.980;2022-12-29T05:20:18;55.72;;;35.88;;
55053;SDS011;40954;45.668;18.980;2022-12-29T05:22:44;65.30;;;40.50;;
55053;SDS011;40954;45.668;18.980;2022-12-29T05:25:10;57.97;;;38.65;;
55053;SDS011;40954;45.668;18.980;2022-12-29T05:27:35;66.97;;;39.25;;
55053;SDS011;40954;45.668;18.980;2022-12-29T05:30:01;49.67;;;32.55;;
55053;SDS011;40954;45.668;18.980;2022-12-29T05:32:27;45.67;;;32.20;;
55053;SDS011;40954;45.668;18.980;2022-12-29T05:34:53;52.80;;;34.25;;
55053;SDS011;40954;45.668;18.980;2022-12-29T05:37:18;53.67;;;35.72;;
55053;SDS011;40954;45.668;18.980;2022-12-29T05:39:44;60.10;;;37.03;;
55053;SDS011;40954;45.668;18.980;2022-12-29T05:42:10;58.85;;;36.45;;
55053;SDS011;40954;45.668;18.980;2022-12-29T05:44:35;59.83;;;36.15;;
55053;SDS011;40954;45.668;18.980;2022-12-29T05:47:01;62.47;;;38.95;;
55053;SDS011;40954;45.668;18.980;2022-12-29T05:49:27;61.83;;;40.85;;
55053;SDS011;40954;45.668;18.980;2022-12-29T05:55:11;74.30;;;50.70;;
55053;SDS011;40954;45.668;18.980;2022-12-29T05:57:37;73.78;;;46.67;;
55053;SDS011;40954;45.668;18.980;2022-12-29T06:00:06;66.82;;;43.63;;
55053;SDS011;40954;45.668;18.980;2022-12-29T06:02:32;66.38;;;42.72;;
55053;SDS011;40954;45.668;18.980;2022-12-29T06:04:58;65.05;;;42.88;;
55053;SDS011;40954;45.668;18.980;2022-12-29T06:07:23;67.60;;;43.08;;
55053;SDS011;40954;45.668;18.980;2022-12-29T06:09:49;63.78;;;42.47;;
55053;SDS011;40954;45.668;18.980;2022-12-29T06:12:14;69.43;;;44.60;;
55053;SDS011;40954;45.668;18.980;2022-12-29T06:14:41;69.13;;;44.45;;
55053;SDS011;40954;45.668;18.980;2022-12-29T06:17:07;73.93;;;45.22;;
55053;SDS011;40954;45.668;18.980;2022-12-29T06:19:32;60.83;;;39.10;;
55053;SDS011;40954;45.668;18.980;2022-12-29T06:21:58;49.95;;;33.67;;
55053;SDS011;40954;45.668;18.980;2022-12-29T06:24:24;51.42;;;34.33;;
55053;SDS011;40954;45.668;18.980;2022-12-29T06:26:49;57.28;;;35.83;;
55053;SDS011;40954;45.668;18.980;2022-12-29T06:29:15;56.78;;;34.92;;
55053;SDS011;40954;45.668;18.980;2022-12-29T06:31:42;53.97;;;35.47;;
55053;SDS011;40954;45.668;18.980;2022-12-29T06:34:11;50.83;;;36.00;;
55053;SDS011;40954;45.668;18.980;2022-12-29T06:36:37;57.90;;;37.30;;
55053;SDS011;40954;45.668;18.980;2022-12-29T06:39:03;55.88;;;36.05;;
55053;SDS011;40954;45.668;18.980;2022-12-29T06:41:28;53.92;;;36.88;;
55053;SDS011;40954;45.668;18.980;2022-12-29T06:43:54;58.03;;;36.05;;
55053;SDS011;40954;45.668;18.980;2022-12-29T06:46:20;61.40;;;37.83;;
55053;SDS011;40954;45.668;18.980;2022-12-29T06:48:46;70.97;;;46.33;;
55053;SDS011;40954;45.668;18.980;2022-12-29T06:51:11;69.65;;;48.45;;
55053;SDS011;40954;45.668;18.980;2022-12-29T06:53:38;65.40;;;43.90;;
55053;SDS011;40954;45.668;18.980;2022-12-29T06:56:04;70.88;;;45.63;;
55053;SDS011;40954;45.668;18.980;2022-12-29T06:58:30;68.97;;;44.88;;
55053;SDS011;40954;45.668;18.980;2022-12-29T07:00:56;64.43;;;41.70;;
55053;SDS011;40954;45.668;18.980;2022-12-29T07:03:21;83.32;;;50.00;;
55053;SDS011;40954;45.668;18.980;2022-12-29T07:05:47;77.20;;;47.28;;
55053;SDS011;40954;45.668;18.980;2022-12-29T07:08:12;92.75;;;56.38;;
55053;SDS011;40954;45.668;18.980;2022-12-29T07:10:39;114.45;;;60.80;;
55053;SDS011;40954;45.668;18.980;2022-12-29T07:13:04;141.15;;;82.50;;
55053;SDS011;40954;45.668;18.980;2022-12-29T07:15:32;153.75;;;89.80;;
55053;SDS011;40954;45.668;18.980;2022-12-29T07:17:58;111.97;;;71.90;;
55053;SDS011;40954;45.668;18.980;2022-12-29T07:20:24;96.80;;;58.10;;
55053;SDS011;40954;45.668;18.980;2022-12-29T07:22:49;122.90;;;70.30;;
55053;SDS011;40954;45.668;18.980;2022-12-29T07:25:15;141.32;;;74.90;;
55053;SDS011;40954;45.668;18.980;2022-12-29T07:27:41;151.35;;;79.80;;
55053;SDS011;40954;45.668;18.980;2022-12-29T07:30:07;148.45;;;87.13;;
55053;SDS011;40954;45.668;18.980;2022-12-29T07:32:33;176.07;;;99.88;;
55053;SDS011;40954;45.668;18.980;2022-12-29T07:34:59;221.20;;;135.93;;
55053;SDS011;40954;45.668;18.980;2022-12-29T07:37:25;201.80;;;116.95;;
55053;SDS011;40954;45.668;18.980;2022-12-29T07:39:51;244.88;;;124.38;;
55053;SDS011;40954;45.668;18.980;2022-12-29T07:42:17;227.88;;;120.30;;
55053;SDS011;40954;45.668;18.980;2022-12-29T07:44:43;177.07;;;103.00;;
55053;SDS011;40954;45.668;18.980;2022-12-29T07:47:09;182.63;;;103.22;;
55053;SDS011;40954;45.668;18.980;2022-12-29T07:49:35;195.10;;;109.85;;
55053;SDS011;40954;45.668;18.980;2022-12-29T07:52:01;199.52;;;113.82;;
55053;SDS011;40954;45.668;18.980;2022-12-29T07:54:27;236.18;;;132.70;;
55053;SDS011;40954;45.668;18.980;2022-12-29T07:56:53;240.63;;;133.20;;
55053;SDS011;40954;45.668;18.980;2022-12-29T07:59:19;223.25;;;126.22;;
55053;SDS011;40954;45.668;18.980;2022-12-29T08:01:45;233.88;;;136.20;;
55053;SDS011;40954;45.668;18.980;2022-12-29T08:04:11;239.40;;;137.23;;
55053;SDS011;40954;45.668;18.980;2022-12-29T08:06:37;273.50;;;144.30;;
55053;SDS011;40954;45.668;18.980;2022-12-29T08:09:03;197.27;;;115.95;;
55053;SDS011;40954;45.668;18.980;2022-12-29T08:11:29;170.50;;;100.10;;
55053;SDS011;40954;45.668;18.980;2022-12-29T08:13:55;166.48;;;98.32;;
55053;SDS011;40954;45.668;18.980;2022-12-29T08:16:21;190.60;;;104.40;;
55053;SDS011;40954;45.668;18.980;2022-12-29T08:18:47;176.63;;;102.90;;
55053;SDS011;40954;45.668;18.980;2022-12-29T08:21:13;182.55;;;105.75;;
55053;SDS011;40954;45.668;18.980;2022-12-29T08:23:39;157.45;;;95.50;;
55053;SDS011;40954;45.668;18.980;2022-12-29T08:26:05;142.77;;;86.78;;
55053;SDS011;40954;45.668;18.980;2022-12-29T08:28:32;124.88;;;77.43;;
55053;SDS011;40954;45.668;18.980;2022-12-29T08:30:58;86.47;;;53.75;;
55053;SDS011;40954;45.668;18.980;2022-12-29T08:33:25;58.83;;;38.60;;
55053;SDS011;40954;45.668;18.980;2022-12-29T08:35:52;53.88;;;33.67;;
55053;SDS011;40954;45.668;18.980;2022-12-29T08:38:17;50.85;;;32.03;;
55053;SDS011;40954;45.668;18.980;2022-12-29T08:40:43;67.97;;;41.67;;
55053;SDS011;40954;45.668;18.980;2022-12-29T08:43:09;81.22;;;49.78;;
55053;SDS011;40954;45.668;18.980;2022-12-29T08:45:35;97.28;;;59.95;;
55053;SDS011;40954;45.668;18.980;2022-12-29T08:48:00;91.97;;;54.95;;
55053;SDS011;40954;45.668;18.980;2022-12-29T08:50:26;79.18;;;48.83;;
55053;SDS011;40954;45.668;18.980;2022-12-29T08:52:52;63.10;;;39.92;;
55053;SDS011;40954;45.668;18.980;2022-12-29T08:55:17;57.33;;;39.33;;
55053;SDS011;40954;45.668;18.980;2022-12-29T08:57:43;48.35;;;34.13;;
55053;SDS011;40954;45.668;18.980;2022-12-29T09:00:09;52.92;;;33.80;;
55053;SDS011;40954;45.668;18.980;2022-12-29T09:02:35;46.45;;;32.40;;
55053;SDS011;40954;45.668;18.980;2022-12-29T09:05:01;48.38;;;33.13;;
55053;SDS011;40954;45.668;18.980;2022-12-29T09:07:27;46.55;;;31.20;;
55053;SDS011;40954;45.668;18.980;2022-12-29T09:09:52;47.72;;;32.38;;
55053;SDS011;40954;45.668;18.980;2022-12-29T09:12:18;51.95;;;35.15;;
55053;SDS011;40954;45.668;18.980;2022-12-29T09:14:45;49.00;;;36.78;;
55053;SDS011;40954;45.668;18.980;2022-12-29T09:17:11;53.53;;;38.28;;
55053;SDS011;40954;45.668;18.980;2022-12-29T09:19:55;52.90;;;34.60;;
55053;SDS011;40954;45.668;18.980;2022-12-29T09:22:21;50.20;;;34.13;;
55053;SDS011;40954;45.668;18.980;2022-12-29T09:24:47;38.92;;;26.30;;
55053;SDS011;40954;45.668;18.980;2022-12-29T09:27:13;44.08;;;29.52;;
55053;SDS011;40954;45.668;18.980;2022-12-29T09:29:39;43.72;;;29.13;;
55053;SDS011;40954;45.668;18.980;2022-12-29T09:32:05;46.38;;;28.23;;
55053;SDS011;40954;45.668;18.980;2022-12-29T09:34:32;39.47;;;25.67;;
55053;SDS011;40954;45.668;18.980;2022-12-29T09:36:58;43.90;;;27.02;;
55053;SDS011;40954;45.668;18.980;2022-12-29T09:39:24;43.97;;;26.38;;
55053;SDS011;40954;45.668;18.980;2022-12-29T09:44:43;39.65;;;26.20;;
55053;SDS011;40954;45.668;18.980;2022-12-29T09:47:11;36.70;;;26.77;;
55053;SDS011;40954;45.668;18.980;2022-12-29T09:52:08;34.00;;;23.15;;
55053;SDS011;40954;45.668;18.980;2022-12-29T09:54:44;34.53;;;24.55;;
55053;SDS011;40954;45.668;18.980;2022-12-29T09:57:15;38.95;;;27.73;;
55053;SDS011;40954;45.668;18.980;2022-12-29T09:59:42;63.25;;;40.55;;
55053;SDS011;40954;45.668;18.980;2022-12-29T10:02:43;69.68;;;42.38;;
55053;SDS011;40954;45.668;18.980;2022-12-29T10:05:02;50.53;;;30.15;;
55053;SDS011;40954;45.668;18.980;2022-12-29T10:10:09;45.30;;;27.00;;
55053;SDS011;40954;45.668;18.980;2022-12-29T10:15:14;49.83;;;32.67;;
55053;SDS011;40954;45.668;18.980;2022-12-29T10:17:58;51.85;;;32.50;;
55053;SDS011;40954;45.668;18.980;2022-12-29T10:20:48;42.42;;;27.65;;
55053;SDS011;40954;45.668;18.980;2022-12-29T10:25:47;36.45;;;23.25;;
55053;SDS011;40954;45.668;18.980;2022-12-29T10:30:42;37.70;;;22.50;;
55053;SDS011;40954;45.668;18.980;2022-12-29T10:33:11;34.28;;;23.10;;
55053;SDS011;40954;45.668;18.980;2022-12-29T10:35:37;35.13;;;23.10;;
55053;SDS011;40954;45.668;18.980;2022-12-29T10:40:45;34.15;;;23.95;;
55053;SDS011;40954;45.668;18.980;2022-12-29T10:43:28;45.75;;;27.67;;
55053;SDS011;40954;45.668;18.980;2022-12-29T10:45:56;46.72;;;29.08;;
55053;SDS011;40954;45.668;18.980;2022-12-29T10:48:41;49.65;;;30.02;;
55053;SDS011;40954;45.668;18.980;2022-12-29T10:51:10;41.00;;;26.75;;
55053;SDS011;40954;45.668;18.980;2022-12-29T10:53:46;36.13;;;23.15;;
55053;SDS011;40954;45.668;18.980;2022-12-29T10:56:22;40.92;;;25.85;;
55053;SDS011;40954;45.668;18.980;2022-12-29T10:58:51;33.35;;;22.98;;
55053;SDS011;40954;45.668;18.980;2022-12-29T11:01:20;36.58;;;22.70;;
55053;SDS011;40954;45.668;18.980;2022-12-29T11:03:48;35.47;;;25.38;;
55053;SDS011;40954;45.668;18.980;2022-12-29T11:06:26;38.13;;;24.88;;
55053;SDS011;40954;45.668;18.980;2022-12-29T11:08:54;49.47;;;31.27;;
55053;SDS011;40954;45.668;18.980;2022-12-29T11:11:22;40.60;;;27.42;;
55053;SDS011;40954;45.668;18.980;2022-12-29T11:16:14;30.60;;;21.95;;
55053;SDS011;40954;45.668;18.980;2022-12-29T11:18:40;28.00;;;20.40;;
55053;SDS011;40954;45.668;18.980;2022-12-29T11:24:26;26.25;;;18.40;;
55053;SDS011;40954;45.668;18.980;2022-12-29T11:27:08;24.90;;;18.10;;
55053;SDS011;40954;45.668;18.980;2022-12-29T11:29:39;22.98;;;16.90;;
55053;SDS011;40954;45.668;18.980;2022-12-29T11:32:16;28.20;;;17.52;;
55053;SDS011;40954;45.668;18.980;2022-12-29T11:34:43;20.58;;;16.17;;
55053;SDS011;40954;45.668;18.980;2022-12-29T11:37:16;23.05;;;17.98;;
55053;SDS011;40954;45.668;18.980;2022-12-29T11:39:46;21.40;;;17.13;;
55053;SDS011;40954;45.668;18.980;2022-12-29T11:42:15;20.85;;;15.40;;
55053;SDS011;40954;45.668;18.980;2022-12-29T11:44:43;20.38;;;15.07;;
55053;SDS011;40954;45.668;18.980;2022-12-29T11:47:11;16.55;;;13.98;;
55053;SDS011;40954;45.668;18.980;2022-12-29T11:49:38;20.83;;;14.75;;
55053;SDS011;40954;45.668;18.980;2022-12-29T11:52:04;21.33;;;14.75;;
55053;SDS011;40954;45.668;18.980;2022-12-29T11:54:31;16.40;;;14.23;;
55053;SDS011;40954;45.668;18.980;2022-12-29T11:56:58;14.30;;;12.70;;
55053;SDS011;40954;45.668;18.980;2022-12-29T12:02:09;22.85;;;17.50;;
55053;SDS011;40954;45.668;18.980;2022-12-29T12:04:37;24.95;;;18.30;;
55053;SDS011;40954;45.668;18.980;2022-12-29T12:07:07;24.02;;;18.08;;
55053;SDS011;40954;45.668;18.980;2022-12-29T12:12:07;24.15;;;19.88;;
55053;SDS011;40954;45.668;18.980;2022-12-29T12:14:40;23.77;;;20.08;;
55053;SDS011;40954;45.668;18.980;2022-12-29T12:19:38;29.55;;;23.13;;
55053;SDS011;40954;45.668;18.980;2022-12-29T12:24:48;37.15;;;26.13;;
55053;SDS011;40954;45.668;18.980;2022-12-29T12:27:25;37.80;;;27.38;;
55053;SDS011;40954;45.668;18.980;2022-12-29T12:33:03;44.65;;;32.22;;
55053;SDS011;40954;45.668;18.980;2022-12-29T12:35:11;54.55;;;35.05;;
55053;SDS011;40954;45.668;18.980;2022-12-29T12:37:42;46.17;;;31.50;;
55053;SDS011;40954;45.668;18.980;2022-12-29T12:40:25;38.40;;;28.60;;
55053;SDS011;40954;45.668;18.980;2022-12-29T12:45:48;42.83;;;32.42;;
55053;SDS011;40954;45.668;18.980;2022-12-29T12:53:47;59.25;;;40.95;;
55053;SDS011;40954;45.668;18.980;2022-12-29T13:02:13;37.83;;;31.63;;
55053;SDS011;40954;45.668;18.980;2022-12-29T13:04:37;38.92;;;31.13;;
55053;SDS011;40954;45.668;18.980;2022-12-29T13:20:10;27.05;;;22.80;;
55053;SDS011;40954;45.668;18.980;2022-12-29T13:22:49;30.02;;;22.63;;
55053;SDS011;40954;45.668;18.980;2022-12-29T13:25:31;26.55;;;21.48;;
55053;SDS011;40954;45.668;18.980;2022-12-29T13:28:16;25.83;;;22.58;;
55053;SDS011;40954;45.668;18.980;2022-12-29T13:35:58;27.40;;;21.05;;
55053;SDS011;40954;45.668;18.980;2022-12-29T13:40:56;25.05;;;21.42;;
55053;SDS011;40954;45.668;18.980;2022-12-29T13:43:24;26.27;;;19.83;;
55053;SDS011;40954;45.668;18.980;2022-12-29T13:45:55;32.92;;;23.17;;
55053;SDS011;40954;45.668;18.980;2022-12-29T13:48:23;31.02;;;23.80;;
55053;SDS011;40954;45.668;18.980;2022-12-29T13:50:52;22.70;;;18.88;;
55053;SDS011;40954;45.668;18.980;2022-12-29T14:03:58;36.38;;;27.45;;
55053;SDS011;40954;45.668;18.980;2022-12-29T14:08:55;46.85;;;30.40;;
55053;SDS011;40954;45.668;18.980;2022-12-29T14:11:23;37.60;;;27.73;;
55053;SDS011;40954;45.668;18.980;2022-12-29T14:13:54;38.63;;;28.38;;
55053;SDS011;40954;45.668;18.980;2022-12-29T14:16:30;42.72;;;30.17;;
55053;SDS011;40954;45.668;18.980;2022-12-29T14:19:03;45.95;;;33.60;;
55053;SDS011;40954;45.668;18.980;2022-12-29T14:21:29;51.47;;;34.80;;
55053;SDS011;40954;45.668;18.980;2022-12-29T14:24:02;53.28;;;34.67;;
55053;SDS011;40954;45.668;18.980;2022-12-29T14:26:42;50.45;;;34.50;;
55053;SDS011;40954;45.668;18.980;2022-12-29T14:31:49;52.53;;;32.47;;
55053;SDS011;40954;45.668;18.980;2022-12-29T14:36:54;48.08;;;32.25;;
55053;SDS011;40954;45.668;18.980;2022-12-29T14:42:06;41.55;;;28.65;;
55053;SDS011;40954;45.668;18.980;2022-12-29T14:44:50;40.40;;;27.88;;
55053;SDS011;40954;45.668;18.980;2022-12-29T14:47:27;40.38;;;27.50;;
55053;SDS011;40954;45.668;18.980;2022-12-29T14:50:06;38.03;;;27.77;;
55053;SDS011;40954;45.668;18.980;2022-12-29T14:52:42;53.47;;;36.33;;
55053;SDS011;40954;45.668;18.980;2022-12-29T14:57:53;59.00;;;41.90;;
55053;SDS011;40954;45.668;18.980;2022-12-29T15:02:50;41.92;;;31.05;;
55053;SDS011;40954;45.668;18.980;2022-12-29T15:07:52;45.15;;;32.13;;
55053;SDS011;40954;45.668;18.980;2022-12-29T15:10:19;42.13;;;30.08;;
55053;SDS011;40954;45.668;18.980;2022-12-29T15:12:49;44.95;;;30.13;;
55053;SDS011;40954;45.668;18.980;2022-12-29T15:17:43;50.08;;;34.78;;
55053;SDS011;40954;45.668;18.980;2022-12-29T15:20:26;50.80;;;36.38;;
55053;SDS011;40954;45.668;18.980;2022-12-29T15:23:02;52.03;;;35.38;;
55053;SDS011;40954;45.668;18.980;2022-12-29T15:25:28;51.97;;;34.50;;
55053;SDS011;40954;45.668;18.980;2022-12-29T15:28:01;61.35;;;37.97;;
55053;SDS011;40954;45.668;18.980;2022-12-29T15:30:27;71.45;;;43.15;;
55053;SDS011;40954;45.668;18.980;2022-12-29T15:32:53;66.43;;;43.42;;
55053;SDS011;40954;45.668;18.980;2022-12-29T15:35:27;56.30;;;38.35;;
55053;SDS011;40954;45.668;18.980;2022-12-29T15:37:53;51.63;;;36.13;;
55053;SDS011;40954;45.668;18.980;2022-12-29T15:40:26;51.28;;;35.25;;
55053;SDS011;40954;45.668;18.980;2022-12-29T15:42:57;55.88;;;37.95;;
55053;SDS011;40954;45.668;18.980;2022-12-29T15:45:29;54.50;;;35.85;;
55053;SDS011;40954;45.668;18.980;2022-12-29T15:47:56;54.58;;;37.50;;
55053;SDS011;40954;45.668;18.980;2022-12-29T15:50:31;53.47;;;36.13;;
55053;SDS011;40954;45.668;18.980;2022-12-29T15:52:58;55.13;;;37.85;;
55053;SDS011;40954;45.668;18.980;2022-12-29T15:55:27;64.82;;;43.13;;
55053;SDS011;40954;45.668;18.980;2022-12-29T15:57:58;67.63;;;43.90;;
55053;SDS011;40954;45.668;18.980;2022-12-29T16:00:28;71.80;;;45.53;;
55053;SDS011;40954;45.668;18.980;2022-12-29T16:02:55;79.88;;;48.92;;
55053;SDS011;40954;45.668;18.980;2022-12-29T16:05:22;69.22;;;46.65;;
55053;SDS011;40954;45.668;18.980;2022-12-29T16:07:52;65.15;;;44.70;;
55053;SDS011;40954;45.668;18.980;2022-12-29T16:10:36;77.82;;;52.33;;
55053;SDS011;40954;45.668;18.980;2022-12-29T16:13:24;75.97;;;49.22;;
55053;SDS011;40954;45.668;18.980;2022-12-29T16:15:52;75.68;;;49.92;;
55053;SDS011;40954;45.668;18.980;2022-12-29T16:18:23;66.82;;;45.80;;
55053;SDS011;40954;45.668;18.980;2022-12-29T16:20:50;58.90;;;43.03;;
55053;SDS011;40954;45.668;18.980;2022-12-29T16:23:21;65.65;;;47.10;;
55053;SDS011;40954;45.668;18.980;2022-12-29T16:25:48;68.22;;;46.58;;
55053;SDS011;40954;45.668;18.980;2022-12-29T16:28:16;71.72;;;48.63;;
55053;SDS011;40954;45.668;18.980;2022-12-29T16:30:43;66.50;;;46.53;;
55053;SDS011;40954;45.668;18.980;2022-12-29T16:35:53;65.10;;;47.42;;
55053;SDS011;40954;45.668;18.980;2022-12-29T16:38:20;70.65;;;47.88;;
55053;SDS011;40954;45.668;18.980;2022-12-29T16:43:20;67.50;;;44.45;;
55053;SDS011;40954;45.668;18.980;2022-12-29T16:50:40;68.32;;;43.42;;
55053;SDS011;40954;45.668;18.980;2022-12-29T16:53:15;66.75;;;43.88;;
55053;SDS011;40954;45.668;18.980;2022-12-29T16:55:47;63.05;;;40.60;;
55053;SDS011;40954;45.668;18.980;2022-12-29T16:58:18;62.05;;;41.72;;
55053;SDS011;40954;45.668;18.980;2022-12-29T17:00:45;58.72;;;41.00;;
55053;SDS011;40954;45.668;18.980;2022-12-29T17:03:12;57.63;;;40.70;;